Time;durP1;ratioP1;P1;durP2;ratioP2;P2;SDS_P1;SDS_P2;PMS_P1;PMS_P2;Temp;Humidity;BMP_temperature;BMP_pressure;BME280_temperature;BME280_humidity;BME280_pressure;Samples;Min_cycle;Max_cycle;Signal;HPM_P1;HPM_P2
2023/06/25 00:01:57;;;;;;;3.85;2.45;;;21.00;99.90;;;;;;5030613;28;20041;-72
2023/06/25 00:04:22;;;;;;;7.10;3.00;;;21.00;99.90;;;;;;5036705;28;20037;-72
2023/06/25 00:06:48;;;;;;;4.05;2.28;;;21.00;99.90;;;;;;5015468;28;20543;-71
2023/06/25 00:09:14;;;;;;;3.55;2.30;;;21.10;99.90;;;;;;5034713;28;20397;-71
2023/06/25 00:11:39;;;;;;;4.22;2.40;;;21.00;99.90;;;;;;5039142;28;20041;-70
2023/06/25 00:14:05;;;;;;;5.40;2.53;;;21.00;99.90;;;;;;5046983;28;20041;-74
2023/06/25 00:16:33;;;;;;;4.68;2.50;;;21.00;99.90;;;;;;5015381;28;20037;-73
2023/06/25 00:19:00;;;;;;;5.32;3.10;;;20.90;99.90;;;;;;5030619;28;20133;-71
2023/06/25 00:21:26;;;;;;;5.63;2.40;;;20.90;99.90;;;;;;5011717;28;20068;-70
2023/06/25 00:23:51;;;;;;;7.25;3.08;;;20.90;99.90;;;;;;5012836;28;20037;-71
2023/06/25 00:26:17;;;;;;;4.75;2.92;;;20.80;99.90;;;;;;5011366;28;20037;-72
2023/06/25 00:28:44;;;;;;;6.03;3.28;;;20.80;99.90;;;;;;5011850;28;20036;-71
2023/06/25 00:31:12;;;;;;;9.52;4.32;;;20.80;99.90;;;;;;5028826;28;20045;-72
2023/06/25 00:33:38;;;;;;;5.90;3.70;;;20.80;99.90;;;;;;5028739;28;20489;-71
2023/06/25 00:36:07;;;;;;;5.75;3.20;;;20.70;99.90;;;;;;5029699;28;20034;-73
2023/06/25 00:38:34;;;;;;;6.85;3.88;;;20.70;99.90;;;;;;5028551;28;20034;-71
2023/06/25 00:41:00;;;;;;;7.57;3.80;;;20.70;99.90;;;;;;5011302;28;20034;-72
2023/06/25 00:43:25;;;;;;;12.40;3.97;;;20.80;99.90;;;;;;5009938;28;20505;-71
2023/06/25 00:45:51;;;;;;;9.85;3.88;;;20.80;99.90;;;;;;5011186;28;20500;-71
2023/06/25 00:48:17;;;;;;;8.23;3.70;;;20.70;99.90;;;;;;5010061;28;20037;-73
2023/06/25 00:50:43;;;;;;;9.30;3.70;;;20.70;99.90;;;;;;5011361;28;20033;-73
2023/06/25 00:53:09;;;;;;;5.80;3.08;;;20.70;99.90;;;;;;5010372;28;20452;-71
2023/06/25 00:55:35;;;;;;;7.10;3.63;;;20.70;99.90;;;;;;5010718;28;20045;-71
2023/06/25 00:58:01;;;;;;;6.88;3.38;;;20.70;99.90;;;;;;5011667;28;20087;-72
2023/06/25 01:00:33;;;;;;;7.40;3.53;;;20.60;99.90;;;;;;5010662;28;20045;-72
2023/06/25 01:03:07;;;;;;;9.63;4.25;;;20.60;99.90;;;;;;5028997;28;20041;-72
2023/06/25 01:05:43;;;;;;;6.22;3.25;;;20.70;99.90;;;;;;5026298;28;20033;-72
2023/06/25 01:08:10;;;;;;;9.13;3.55;;;20.70;99.90;;;;;;5017872;28;20029;-72
2023/06/25 01:10:40;;;;;;;7.72;4.57;;;20.60;99.90;;;;;;5029013;28;20037;-72
2023/06/25 01:13:05;;;;;;;9.80;3.95;;;20.60;99.90;;;;;;5010305;28;20140;-73
2023/06/25 01:15:31;;;;;;;7.07;3.67;;;20.50;99.90;;;;;;5010787;28;20530;-72
2023/06/25 01:17:57;;;;;;;6.75;3.75;;;20.50;99.90;;;;;;5011131;28;20054;-72
2023/06/25 01:20:26;;;;;;;13.18;4.60;;;20.50;99.90;;;;;;5027457;28;20044;-72
2023/06/25 01:22:55;;;;;;;8.38;4.30;;;20.40;99.90;;;;;;5010669;28;20041;-72
2023/06/25 01:25:21;;;;;;;7.88;4.07;;;20.40;99.90;;;;;;5009994;28;20129;-73
2023/06/25 01:27:49;;;;;;;8.20;4.20;;;20.50;99.90;;;;;;5010736;28;20053;-72
2023/06/25 01:30:15;;;;;;;10.77;5.93;;;20.40;99.90;;;;;;5009817;28;20044;-72
2023/06/25 01:32:41;;;;;;;10.43;4.10;;;20.40;99.90;;;;;;5009686;28;20029;-72
2023/06/25 01:35:07;;;;;;;8.80;4.78;;;20.40;99.90;;;;;;5009381;28;20030;-72
2023/06/25 01:37:33;;;;;;;8.27;4.63;;;20.50;99.90;;;;;;5010004;28;20044;-73
2023/06/25 01:39:59;;;;;;;8.98;4.35;;;20.40;99.90;;;;;;5023964;28;20029;-72
2023/06/25 01:42:24;;;;;;;8.88;4.60;;;20.40;99.90;;;;;;5026835;28;20037;-71
2023/06/25 01:44:50;;;;;;;7.30;4.68;;;20.40;99.90;;;;;;5027625;28;20029;-71
2023/06/25 01:47:16;;;;;;;8.48;4.80;;;20.30;99.90;;;;;;5027070;28;20036;-74
2023/06/25 01:49:41;;;;;;;7.97;4.50;;;20.30;99.90;;;;;;5009681;28;20032;-72
2023/06/25 01:52:07;;;;;;;8.25;4.30;;;20.30;99.90;;;;;;5009529;28;20037;-73
2023/06/25 01:54:33;;;;;;;8.07;4.50;;;20.20;99.90;;;;;;5028132;28;20485;-71
2023/06/25 01:56:59;;;;;;;7.78;4.00;;;20.20;99.90;;;;;;5014999;28;20401;-72
2023/06/25 01:59:25;;;;;;;10.55;5.18;;;20.10;99.90;;;;;;5040294;28;20105;-71
2023/06/25 02:01:51;;;;;;;9.30;4.90;;;20.10;99.90;;;;;;5032828;28;20080;-72
2023/06/25 02:04:16;;;;;;;10.90;4.70;;;20.10;99.90;;;;;;5027359;28;20497;-72
2023/06/25 02:06:42;;;;;;;9.60;4.78;;;20.20;99.90;;;;;;5009866;28;20112;-71
2023/06/25 02:09:07;;;;;;;8.98;5.03;;;20.10;99.90;;;;;;5010160;28;20421;-71
2023/06/25 02:11:33;;;;;;;9.70;4.75;;;20.10;99.90;;;;;;5009004;28;20637;-72
2023/06/25 02:13:58;;;;;;;11.52;5.20;;;20.10;99.90;;;;;;5009654;28;20041;-74
2023/06/25 02:16:24;;;;;;;11.65;4.90;;;20.10;99.90;;;;;;5008825;28;20121;-72
2023/06/25 02:18:50;;;;;;;9.63;5.10;;;20.20;99.90;;;;;;5027614;28;20037;-72
2023/06/25 02:21:16;;;;;;;9.15;4.70;;;20.10;99.90;;;;;;5025687;28;20045;-74
2023/06/25 02:23:41;;;;;;;9.40;4.45;;;20.10;99.90;;;;;;5009782;28;20029;-72
2023/06/25 02:26:07;;;;;;;10.38;4.80;;;20.10;99.90;;;;;;5009108;28;20038;-73
2023/06/25 02:28:32;;;;;;;7.93;4.53;;;20.10;99.90;;;;;;5009153;28;20190;-73
2023/06/25 02:30:58;;;;;;;9.15;4.95;;;20.10;99.90;;;;;;5026892;28;20114;-72
2023/06/25 02:33:24;;;;;;;9.55;4.65;;;20.10;99.90;;;;;;5026233;28;20494;-73
2023/06/25 02:35:50;;;;;;;9.88;5.20;;;20.00;99.90;;;;;;5009256;28;20029;-72
2023/06/25 02:38:15;;;;;;;8.48;4.18;;;20.00;99.90;;;;;;5009009;28;20080;-72
2023/06/25 02:40:41;;;;;;;13.38;5.22;;;20.00;99.90;;;;;;5026506;28;20053;-72
2023/06/25 02:43:06;;;;;;;9.32;4.68;;;19.90;99.90;;;;;;5026875;28;20030;-73
2023/06/25 02:45:32;;;;;;;9.70;4.85;;;19.90;99.90;;;;;;5009612;28;20117;-72
2023/06/25 02:47:57;;;;;;;16.25;4.65;;;19.90;99.90;;;;;;5012429;28;20041;-71
2023/06/25 02:50:23;;;;;;;9.48;5.15;;;19.90;99.90;;;;;;5012210;28;20064;-71
2023/06/25 02:52:48;;;;;;;11.05;4.55;;;19.90;99.90;;;;;;5013024;28;20088;-72
2023/06/25 02:55:14;;;;;;;7.90;4.55;;;19.90;99.90;;;;;;5013919;28;20040;-71
2023/06/25 02:57:40;;;;;;;12.65;5.13;;;19.90;99.90;;;;;;5029889;28;20084;-72
2023/06/25 03:00:06;;;;;;;11.32;5.68;;;19.90;99.90;;;;;;5009049;28;20026;-74
2023/06/25 03:02:31;;;;;;;9.38;5.30;;;19.90;99.90;;;;;;5008235;28;20085;-72
2023/06/25 03:04:57;;;;;;;11.13;4.63;;;19.90;99.90;;;;;;5010009;28;20026;-72
2023/06/25 03:07:23;;;;;;;8.07;4.55;;;19.90;99.90;;;;;;5026328;28;20553;-72
2023/06/25 03:09:49;;;;;;;12.10;5.22;;;19.90;99.90;;;;;;5032057;28;20091;-71
2023/06/25 03:12:14;;;;;;;7.43;4.40;;;19.90;99.90;;;;;;5009124;28;20064;-73
2023/06/25 03:14:41;;;;;;;11.35;4.93;;;19.90;99.90;;;;;;5026435;28;20037;-72
2023/06/25 03:17:06;;;;;;;11.70;5.70;;;19.80;99.90;;;;;;5008380;28;20037;-73
2023/06/25 03:19:32;;;;;;;12.75;5.47;;;19.80;99.90;;;;;;5026225;28;20840;-73
2023/06/25 03:21:58;;;;;;;8.13;4.43;;;19.80;99.90;;;;;;5008625;28;20409;-71
2023/06/25 03:24:24;;;;;;;9.00;4.75;;;19.70;99.90;;;;;;5008039;28;20033;-71
2023/06/25 03:26:49;;;;;;;11.73;5.70;;;19.70;99.90;;;;;;5009057;28;20037;-72
2023/06/25 03:29:15;;;;;;;8.68;4.78;;;19.80;99.90;;;;;;5008568;28;20033;-72
2023/06/25 03:31:41;;;;;;;9.15;4.18;;;19.70;99.90;;;;;;5026161;28;20052;-72
2023/06/25 03:34:06;;;;;;;8.35;4.28;;;19.70;99.90;;;;;;5011744;28;20037;-72
2023/06/25 03:36:32;;;;;;;9.63;4.93;;;19.70;99.90;;;;;;5029963;28;20490;-72
2023/06/25 03:38:58;;;;;;;8.95;4.38;;;19.60;99.90;;;;;;5030302;28;20052;-72
2023/06/25 03:41:24;;;;;;;7.97;4.57;;;19.60;99.90;;;;;;5029205;28;20053;-72
2023/06/25 03:43:50;;;;;;;7.70;4.22;;;19.60;99.90;;;;;;5018981;28;20134;-73
2023/06/25 03:46:16;;;;;;;8.32;4.68;;;19.50;99.90;;;;;;5020646;28;20120;-73
2023/06/25 03:48:44;;;;;;;11.65;4.68;;;19.40;99.90;;;;;;5012242;28;20033;-73
2023/06/25 03:51:10;;;;;;;24.85;5.28;;;19.40;99.90;;;;;;5011608;28;20055;-73
2023/06/25 03:53:38;;;;;;;10.18;4.40;;;19.40;99.90;;;;;;5011732;28;20037;-72
2023/06/25 03:56:03;;;;;;;9.07;5.10;;;19.30;99.90;;;;;;5012512;28;20025;-72
2023/06/25 03:58:29;;;;;;;14.20;5.00;;;19.40;99.90;;;;;;5011247;28;20034;-72
2023/06/25 04:00:55;;;;;;;11.90;4.55;;;19.40;99.90;;;;;;5011846;28;20033;-71
2023/06/25 04:03:20;;;;;;;8.57;4.95;;;19.40;99.90;;;;;;5006776;28;20033;-71
2023/06/25 04:05:47;;;;;;;8.05;4.38;;;19.50;99.90;;;;;;5011770;28;20505;-72
2023/06/25 04:08:13;;;;;;;8.77;5.00;;;19.50;99.90;;;;;;5011542;28;20033;-73
2023/06/25 04:10:40;;;;;;;9.60;5.03;;;19.60;99.90;;;;;;5015208;28;20040;-72
2023/06/25 04:13:06;;;;;;;6.35;4.00;;;19.60;99.90;;;;;;5028826;28;20043;-71
2023/06/25 04:15:32;;;;;;;9.75;4.25;;;19.60;99.90;;;;;;5011308;28;20402;-73
2023/06/25 04:17:57;;;;;;;8.60;4.60;;;19.70;99.90;;;;;;5011863;28;20370;-73
2023/06/25 04:20:26;;;;;;;7.68;4.57;;;19.70;99.90;;;;;;5010623;28;20106;-72
2023/06/25 04:22:51;;;;;;;8.38;3.70;;;19.70;99.90;;;;;;5011213;28;20060;-72
2023/06/25 04:25:17;;;;;;;10.68;4.75;;;19.70;99.90;;;;;;5010862;28;20486;-75
2023/06/25 04:27:43;;;;;;;9.40;5.05;;;19.70;99.90;;;;;;5011926;28;20501;-72
2023/06/25 04:30:08;;;;;;;9.73;4.65;;;19.70;99.90;;;;;;5010865;28;20026;-74
2023/06/25 04:32:34;;;;;;;10.38;4.13;;;19.80;99.90;;;;;;5010429;28;20563;-73
2023/06/25 04:35:00;;;;;;;10.55;4.95;;;19.80;99.90;;;;;;5011506;28;20029;-73
2023/06/25 04:37:26;;;;;;;9.40;4.60;;;19.90;99.90;;;;;;5035742;28;20060;-72
2023/06/25 04:39:51;;;;;;;9.77;4.78;;;19.90;99.90;;;;;;5035247;28;20025;-72
2023/06/25 04:42:17;;;;;;;10.10;4.57;;;19.90;99.90;;;;;;5027639;28;20453;-75
2023/06/25 04:44:42;;;;;;;11.88;4.75;;;19.90;99.90;;;;;;5011310;28;20037;-73
2023/06/25 04:47:08;;;;;;;7.97;4.30;;;19.90;99.90;;;;;;5010792;28;20048;-72
2023/06/25 04:49:33;;;;;;;8.65;5.05;;;19.90;99.90;;;;;;5028284;28;20132;-72
2023/06/25 04:51:59;;;;;;;8.43;4.07;;;20.00;99.90;;;;;;5028548;28;20038;-73
2023/06/25 04:54:24;;;;;;;8.88;4.80;;;20.00;99.90;;;;;;5027980;28;20486;-73
2023/06/25 04:56:50;;;;;;;8.55;4.95;;;20.00;99.90;;;;;;5011255;28;20410;-72
2023/06/25 04:59:15;;;;;;;9.57;5.07;;;20.10;99.90;;;;;;5009311;28;20041;-72
2023/06/25 05:01:42;;;;;;;10.60;4.70;;;20.10;99.90;;;;;;5028375;28;20030;-72
2023/06/25 05:04:08;;;;;;;7.82;4.53;;;20.10;99.90;;;;;;5014450;28;20041;-72
2023/06/25 05:06:33;;;;;;;8.13;5.10;;;20.10;99.90;;;;;;5028542;28;20091;-73
2023/06/25 05:08:59;;;;;;;8.98;5.15;;;20.20;99.90;;;;;;5028699;28;20453;-73
2023/06/25 05:11:24;;;;;;;9.95;4.78;;;20.30;99.90;;;;;;5029870;28;20124;-72
2023/06/25 05:13:50;;;;;;;6.95;4.07;;;20.30;99.90;;;;;;5028824;28;20025;-71
2023/06/25 05:16:16;;;;;;;9.18;4.25;;;20.30;99.90;;;;;;5028080;28;20033;-72
2023/06/25 05:18:42;;;;;;;15.93;5.18;;;20.40;99.90;;;;;;5027907;28;20059;-72
2023/06/25 05:21:07;;;;;;;10.18;4.63;;;20.50;99.90;;;;;;5011173;28;20057;-73
2023/06/25 05:23:44;;;;;;;7.90;4.45;;;20.50;99.90;;;;;;5028050;28;20064;-71
2023/06/25 05:26:11;;;;;;;8.77;4.30;;;20.60;99.90;;;;;;5028349;28;20041;-72
2023/06/25 05:28:38;;;;;;;11.73;5.00;;;20.60;99.90;;;;;;5028090;28;20047;-70
2023/06/25 05:31:03;;;;;;;9.32;4.60;;;20.70;99.90;;;;;;5020297;28;20097;-72
2023/06/25 05:33:29;;;;;;;9.30;4.90;;;20.80;99.90;;;;;;5034546;28;20490;-73
2023/06/25 05:35:54;;;;;;;6.65;4.10;;;20.80;99.90;;;;;;5028204;28;20096;-72
2023/06/25 05:38:20;;;;;;;8.18;4.47;;;21.00;99.90;;;;;;5009150;28;20102;-72
2023/06/25 05:40:46;;;;;;;8.43;4.05;;;21.10;99.90;;;;;;5010906;28;20140;-72
2023/06/25 05:43:11;;;;;;;10.10;3.97;;;21.30;99.90;;;;;;5009431;28;20041;-73
2023/06/25 05:45:37;;;;;;;7.47;4.22;;;21.40;99.90;;;;;;5010286;28;20486;-72
2023/06/25 05:48:03;;;;;;;9.25;4.43;;;21.40;99.90;;;;;;5028260;28;20034;-72
2023/06/25 05:50:28;;;;;;;12.15;4.20;;;21.70;99.90;;;;;;5008999;28;20029;-72
2023/06/25 05:52:54;;;;;;;8.90;3.70;;;21.90;99.90;;;;;;5008486;28;20057;-73
2023/06/25 05:55:19;;;;;;;6.72;3.63;;;22.30;99.90;;;;;;5024713;28;20039;-72
2023/06/25 05:57:45;;;;;;;6.45;3.78;;;23.00;99.90;;;;;;5009995;28;20041;-72
2023/06/25 06:00:11;;;;;;;7.57;3.95;;;23.50;99.90;;;;;;5026843;28;20032;-72
2023/06/25 06:02:36;;;;;;;5.90;3.55;;;24.00;99.90;;;;;;5026876;28;20037;-71
2023/06/25 06:05:02;;;;;;;8.27;3.97;;;24.30;99.90;;;;;;5012899;28;20476;-73
2023/06/25 06:07:28;;;;;;;6.47;3.78;;;24.60;99.90;;;;;;5027052;28;20659;-72
2023/06/25 06:09:53;;;;;;;6.78;3.72;;;24.80;99.90;;;;;;5012885;28;20113;-72
2023/06/25 06:12:19;;;;;;;6.60;3.53;;;24.90;99.90;;;;;;5009595;28;20096;-73
2023/06/25 06:14:45;;;;;;;6.13;3.72;;;24.90;99.90;;;;;;5027755;28;20033;-72
2023/06/25 06:17:10;;;;;;;5.68;3.47;;;24.90;99.90;;;;;;5027077;28;20437;-71
2023/06/25 06:19:36;;;;;;;6.40;3.55;;;24.90;99.90;;;;;;5006743;28;20053;-72
2023/06/25 06:22:02;;;;;;;6.78;3.80;;;24.90;99.90;;;;;;5014784;28;20028;-73
2023/06/25 06:24:28;;;;;;;9.68;4.00;;;25.00;99.90;;;;;;5024554;28;20040;-73
2023/06/25 06:26:53;;;;;;;7.00;3.65;;;25.00;99.50;;;;;;5035408;28;20398;-73
2023/06/25 06:29:19;;;;;;;6.25;3.63;;;25.00;99.60;;;;;;5009400;28;20453;-73
2023/06/25 06:31:45;;;;;;;6.75;3.60;;;24.90;99.90;;;;;;5027614;28;20091;-73
2023/06/25 06:34:11;;;;;;;7.00;3.70;;;24.90;99.90;;;;;;5009026;28;20033;-73
2023/06/25 06:36:36;;;;;;;6.95;3.63;;;24.90;99.90;;;;;;5027130;28;20041;-73
2023/06/25 06:39:02;;;;;;;9.52;4.18;;;25.00;99.70;;;;;;5009526;28;20038;-73
2023/06/25 06:41:28;;;;;;;7.05;3.65;;;25.20;98.20;;;;;;5026134;28;20041;-72
2023/06/25 06:43:53;;;;;;;6.75;3.72;;;25.30;98.60;;;;;;5027527;28;20033;-72
2023/06/25 06:46:19;;;;;;;7.60;3.88;;;25.50;98.40;;;;;;5026515;28;20434;-73
2023/06/25 06:48:44;;;;;;;6.53;4.13;;;25.70;99.10;;;;;;5009622;28;20037;-72
2023/06/25 06:51:10;;;;;;;8.13;3.75;;;25.90;97.00;;;;;;5026362;28;20103;-73
2023/06/25 06:53:36;;;;;;;6.20;3.60;;;26.10;96.90;;;;;;5026790;28;20046;-72
2023/06/25 06:56:01;;;;;;;5.93;3.17;;;26.20;96.10;;;;;;5027593;28;20565;-72
2023/06/25 06:58:27;;;;;;;7.00;3.60;;;26.40;95.20;;;;;;5026616;28;20038;-73
2023/06/25 07:00:52;;;;;;;7.30;3.58;;;26.60;94.90;;;;;;5027240;28;20554;-74
2023/06/25 07:03:18;;;;;;;7.20;3.50;;;26.80;94.00;;;;;;5004652;28;20042;-74
2023/06/25 07:05:43;;;;;;;5.40;3.00;;;27.00;94.00;;;;;;5012073;28;20087;-73
2023/06/25 07:08:09;;;;;;;7.72;4.10;;;27.40;93.90;;;;;;5030146;28;20060;-72
2023/06/25 07:10:35;;;;;;;10.88;4.05;;;28.00;94.00;;;;;;5030966;28;20387;-72
2023/06/25 07:13:01;;;;;;;8.95;4.57;;;28.60;92.80;;;;;;5030812;28;20116;-73
2023/06/25 07:15:26;;;;;;;8.40;4.25;;;29.30;91.60;;;;;;5017202;28;20093;-71
2023/06/25 07:17:52;;;;;;;10.15;5.85;;;29.80;92.20;;;;;;5055335;28;20017;-73
2023/06/25 07:20:18;;;;;;;8.88;5.28;;;30.40;92.90;;;;;;5041807;28;20524;-76
2023/06/25 07:22:44;;;;;;;9.63;5.30;;;31.00;91.70;;;;;;5012606;28;20138;-74
2023/06/25 07:25:10;;;;;;;8.18;5.13;;;31.90;88.50;;;;;;5026947;28;20032;-74
2023/06/25 07:27:36;;;;;;;8.40;5.85;;;32.90;87.70;;;;;;5029500;28;20034;-74
2023/06/25 07:30:04;;;;;;;9.90;6.15;;;33.90;85.80;;;;;;5030218;28;20103;-73
2023/06/25 07:32:30;;;;;;;10.65;5.85;;;35.00;81.10;;;;;;5024552;28;20041;-74
2023/06/25 07:34:57;;;;;;;8.75;5.15;;;35.50;80.30;;;;;;5032667;28;20519;-74
2023/06/25 07:37:22;;;;;;;8.43;5.38;;;35.70;79.10;;;;;;5031781;28;20025;-74
2023/06/25 07:39:49;;;;;;;12.98;5.95;;;36.50;77.20;;;;;;5030383;28;20073;-74
2023/06/25 07:42:15;;;;;;;10.98;6.68;;;36.80;76.70;;;;;;5029676;28;20487;-73
2023/06/25 07:44:40;;;;;;;13.00;6.53;;;37.20;78.80;;;;;;5029712;28;20037;-73
2023/06/25 07:47:06;;;;;;;8.20;5.85;;;37.20;74.00;;;;;;5030379;28;20040;-76
2023/06/25 07:49:32;;;;;;;7.75;5.95;;;37.60;72.00;;;;;;5034185;28;20026;-73
2023/06/25 07:51:57;;;;;;;10.30;6.25;;;38.00;72.80;;;;;;5034732;28;20043;-73
2023/06/25 07:54:23;;;;;;;10.00;6.30;;;37.60;68.40;;;;;;5030438;28;20045;-74
2023/06/25 07:56:49;;;;;;;8.00;6.38;;;38.30;70.00;;;;;;5029420;28;20399;-73
2023/06/25 07:59:15;;;;;;;6.70;6.00;;;38.40;67.80;;;;;;5010854;28;20029;-73
2023/06/25 08:01:41;;;;;;;8.13;6.07;;;38.40;68.40;;;;;;5029662;28;20025;-74
2023/06/25 08:04:07;;;;;;;12.23;6.30;;;38.80;65.90;;;;;;5032109;28;20124;-75
2023/06/25 08:06:32;;;;;;;6.85;5.57;;;38.80;67.70;;;;;;5032265;28;20037;-74
2023/06/25 08:08:58;;;;;;;11.18;5.90;;;38.60;66.20;;;;;;5022477;28;20032;-72
2023/06/25 08:11:24;;;;;;;9.98;6.18;;;38.50;66.20;;;;;;5054616;28;20065;-72
2023/06/25 08:13:49;;;;;;;8.23;6.38;;;38.40;65.80;;;;;;5037604;28;20037;-74
2023/06/25 08:16:15;;;;;;;9.32;5.85;;;38.00;65.10;;;;;;5012846;28;20029;-73
2023/06/25 08:18:41;;;;;;;7.40;5.53;;;37.70;67.20;;;;;;5029031;28;20564;-73
2023/06/25 08:21:07;;;;;;;8.93;6.22;;;37.40;66.40;;;;;;5028554;28;20022;-74
2023/06/25 08:23:33;;;;;;;7.03;5.15;;;36.80;65.80;;;;;;5028256;28;20030;-73
2023/06/25 08:25:58;;;;;;;6.70;4.88;;;36.40;67.50;;;;;;5011278;28;20137;-73
2023/06/25 08:28:24;;;;;;;9.70;5.40;;;36.00;66.70;;;;;;5028190;28;20030;-74
2023/06/25 08:30:49;;;;;;;9.50;5.03;;;35.20;67.90;;;;;;5029552;28;20033;-73
2023/06/25 08:33:15;;;;;;;8.32;4.90;;;34.50;68.60;;;;;;5028418;28;20034;-74
2023/06/25 08:35:40;;;;;;;8.25;4.22;;;33.90;71.30;;;;;;5029017;28;20036;-73
2023/06/25 08:38:06;;;;;;;10.95;3.92;;;33.50;70.70;;;;;;5028614;28;20152;-76
2023/06/25 08:40:34;;;;;;;7.45;3.72;;;33.20;68.80;;;;;;5029897;28;20502;-72
2023/06/25 08:42:59;;;;;;;6.00;3.00;;;32.90;69.40;;;;;;5011691;28;20131;-72
2023/06/25 08:45:25;;;;;;;6.07;3.10;;;32.60;68.80;;;;;;5027611;28;20451;-74
2023/06/25 08:47:55;;;;;;;5.90;3.10;;;32.50;70.10;;;;;;5028954;28;20041;-72
2023/06/25 08:50:21;;;;;;;4.25;1.95;;;32.30;67.10;;;;;;5009653;28;20045;-72
2023/06/25 08:52:47;;;;;;;5.50;2.92;;;32.10;69.30;;;;;;5028282;28;20069;-73
2023/06/25 08:55:14;;;;;;;5.40;2.38;;;32.00;69.60;;;;;;5011309;28;20051;-73
2023/06/25 08:57:40;;;;;;;7.95;2.97;;;31.90;70.20;;;;;;5028538;28;20116;-73
2023/06/25 09:00:07;;;;;;;3.80;2.35;;;31.90;70.20;;;;;;5012091;28;20132;-74
2023/06/25 09:02:33;;;;;;;3.97;1.77;;;31.80;68.50;;;;;;5035952;28;20087;-73
2023/06/25 09:05:03;;;;;;;5.35;2.17;;;31.80;69.20;;;;;;5043181;28;20038;-72
2023/06/25 09:07:29;;;;;;;2.63;1.58;;;31.80;68.60;;;;;;5028763;28;20063;-71
2023/06/25 09:09:55;;;;;;;4.43;1.33;;;31.80;66.60;;;;;;5029313;28;20033;-74
2023/06/25 09:12:26;;;;;;;4.20;2.15;;;31.80;65.20;;;;;;5027983;28;20064;-71
2023/06/25 09:14:52;;;;;;;4.30;1.98;;;31.80;65.80;;;;;;5028314;28;20125;-72
2023/06/25 09:17:21;;;;;;;4.25;2.13;;;31.80;67.10;;;;;;5009838;28;20052;-73
2023/06/25 09:19:47;;;;;;;2.85;2.05;;;31.80;67.50;;;;;;5028636;28;20041;-72
2023/06/25 09:22:13;;;;;;;5.25;1.77;;;31.60;66.90;;;;;;5009819;28;20413;-73
2023/06/25 09:24:47;;;;;;;3.08;1.80;;;31.50;68.80;;;;;;5028174;28;20041;-71
2023/06/25 09:27:13;;;;;;;2.58;1.90;;;31.60;69.20;;;;;;5010049;28;20092;-73
2023/06/25 09:29:42;;;;;;;5.55;1.58;;;31.40;67.90;;;;;;5025993;28;20648;-73
2023/06/25 09:32:10;;;;;;;7.78;1.90;;;31.60;65.20;;;;;;5009137;28;20091;-74
2023/06/25 09:34:36;;;;;;;4.25;1.85;;;31.70;65.00;;;;;;5026549;28;20457;-72
2023/06/25 09:37:03;;;;;;;3.95;1.80;;;31.70;67.40;;;;;;5019938;28;20137;-73
2023/06/25 09:39:30;;;;;;;2.67;1.52;;;31.80;65.90;;;;;;5008951;28;20120;-72
2023/06/25 09:41:56;;;;;;;2.88;1.60;;;31.80;67.70;;;;;;5011901;28;20041;-73
2023/06/25 09:44:22;;;;;;;3.03;1.75;;;31.80;68.30;;;;;;5027296;28;20402;-72
2023/06/25 09:46:52;;;;;;;2.72;1.73;;;31.80;67.90;;;;;;5010919;28;20086;-72
2023/06/25 09:49:19;;;;;;;3.70;2.10;;;31.70;67.00;;;;;;5009744;28;20060;-71
2023/06/25 09:51:59;;;;;;;4.20;2.00;;;31.60;67.90;;;;;;5028339;28;20029;-74
2023/06/25 09:54:26;;;;;;;3.15;1.83;;;31.70;68.60;;;;;;5016653;28;20101;-72
2023/06/25 09:56:55;;;;;;;6.53;2.20;;;31.80;67.80;;;;;;5040627;28;20052;-71
2023/06/25 09:59:21;;;;;;;3.92;1.92;;;31.80;70.00;;;;;;5015622;28;20073;-73
2023/06/25 10:01:47;;;;;;;5.05;1.90;;;31.80;69.10;;;;;;5027748;28;20025;-73
2023/06/25 10:04:12;;;;;;;2.30;1.33;;;31.90;68.90;;;;;;5010946;28;20398;-73
2023/06/25 10:06:38;;;;;;;7.18;2.47;;;32.00;70.20;;;;;;5009527;28;20034;-72
2023/06/25 10:09:05;;;;;;;3.53;2.05;;;32.00;68.20;;;;;;5027672;28;20033;-72
2023/06/25 10:11:31;;;;;;;5.35;2.53;;;32.10;68.40;;;;;;5004393;28;20037;-71
2023/06/25 10:13:58;;;;;;;5.28;1.70;;;32.20;69.70;;;;;;5009867;28;20114;-73
2023/06/25 10:16:29;;;;;;;3.22;1.90;;;32.20;69.70;;;;;;5026287;28;20041;-72
2023/06/25 10:18:56;;;;;;;3.22;1.67;;;32.20;67.50;;;;;;5010358;28;20041;-72
2023/06/25 10:21:23;;;;;;;2.75;1.90;;;32.20;69.60;;;;;;5026123;28;20502;-73
2023/06/25 10:24:03;;;;;;;4.45;2.00;;;32.20;69.20;;;;;;5009583;28;20026;-73
2023/06/25 10:26:36;;;;;;;3.33;1.85;;;32.40;66.50;;;;;;5022575;28;20033;-73
2023/06/25 10:29:06;;;;;;;3.95;2.45;;;32.40;66.40;;;;;;5005639;28;20040;-72
2023/06/25 10:31:39;;;;;;;3.25;2.08;;;32.30;66.50;;;;;;5005288;28;20053;-73
2023/06/25 10:34:07;;;;;;;3.55;2.10;;;32.30;67.90;;;;;;5006576;28;20037;-73
2023/06/25 10:36:32;;;;;;;2.83;1.83;;;32.30;69.20;;;;;;5009157;28;20030;-73
2023/06/25 10:38:58;;;;;;;4.68;2.28;;;32.30;68.10;;;;;;5009582;28;20043;-72
2023/06/25 10:41:31;;;;;;;5.35;2.80;;;32.40;67.90;;;;;;5007631;28;20037;-72
2023/06/25 10:43:58;;;;;;;5.07;2.60;;;32.40;68.00;;;;;;5027855;28;20482;-72
2023/06/25 10:46:30;;;;;;;4.20;2.50;;;32.40;67.80;;;;;;5026794;28;20026;-72
2023/06/25 10:48:59;;;;;;;3.47;1.60;;;32.40;66.70;;;;;;5019596;28;20034;-72
2023/06/25 10:51:25;;;;;;;3.75;1.92;;;32.40;65.80;;;;;;5028298;28;20040;-72
2023/06/25 10:53:52;;;;;;;3.33;2.35;;;32.30;67.10;;;;;;5030823;28;20056;-73
2023/06/25 10:56:18;;;;;;;2.80;2.22;;;32.30;67.10;;;;;;5026929;28;20022;-72
2023/06/25 10:58:44;;;;;;;6.07;2.25;;;32.40;67.80;;;;;;5026672;28;20029;-72
2023/06/25 11:01:10;;;;;;;3.60;1.55;;;32.30;66.20;;;;;;5008846;28;20033;-72
2023/06/25 11:03:36;;;;;;;2.53;1.77;;;32.40;66.50;;;;;;5009957;28;20066;-72
2023/06/25 11:06:02;;;;;;;4.22;2.50;;;32.40;67.90;;;;;;5009289;28;20037;-72
2023/06/25 11:08:27;;;;;;;2.28;1.45;;;32.40;68.30;;;;;;5025861;28;20120;-71
2023/06/25 11:10:53;;;;;;;3.90;2.00;;;32.40;69.10;;;;;;5009160;28;20428;-71
2023/06/25 11:13:19;;;;;;;3.38;1.45;;;32.40;68.00;;;;;;5008786;28;20032;-71
2023/06/25 11:15:45;;;;;;;3.45;1.75;;;32.40;68.20;;;;;;5026636;28;20030;-71
2023/06/25 11:18:10;;;;;;;5.55;2.03;;;32.40;68.70;;;;;;5008700;28;20416;-71
2023/06/25 11:20:40;;;;;;;2.20;1.58;;;32.50;69.30;;;;;;5026629;28;20045;-71
2023/06/25 11:23:10;;;;;;;3.88;2.28;;;32.60;67.70;;;;;;5026713;28;20034;-71
2023/06/25 11:25:36;;;;;;;3.85;1.90;;;32.70;68.20;;;;;;5024949;28;20426;-70
2023/06/25 11:28:11;;;;;;;2.92;1.70;;;32.70;68.50;;;;;;5026897;28;20037;-71
2023/06/25 11:30:37;;;;;;;5.38;2.10;;;32.70;69.30;;;;;;5026350;28;20072;-72
2023/06/25 11:33:16;;;;;;;7.68;1.65;;;32.90;69.70;;;;;;5023346;28;20030;-72
2023/06/25 11:35:42;;;;;;;2.55;1.85;;;32.80;68.90;;;;;;5025577;28;20042;-72
2023/06/25 11:38:08;;;;;;;2.92;1.42;;;32.80;70.00;;;;;;5008499;28;20175;-73
2023/06/25 11:40:36;;;;;;;3.38;1.88;;;32.80;68.50;;;;;;5025594;28;20049;-72
2023/06/25 11:43:02;;;;;;;2.88;2.00;;;32.70;67.80;;;;;;5018758;28;20033;-73
2023/06/25 11:45:42;;;;;;;3.97;2.00;;;32.70;66.60;;;;;;5017508;28;20087;-72
2023/06/25 11:48:13;;;;;;;3.92;1.45;;;32.50;67.80;;;;;;5006288;28;20138;-72
2023/06/25 11:50:38;;;;;;;3.15;1.98;;;32.50;69.60;;;;;;5008539;28;20037;-71
2023/06/25 11:53:04;;;;;;;3.08;1.90;;;32.50;70.20;;;;;;5027473;28;20049;-72
2023/06/25 11:55:29;;;;;;;2.92;1.85;;;32.60;68.70;;;;;;5011496;28;20057;-72
2023/06/25 11:57:55;;;;;;;2.88;2.15;;;32.50;69.50;;;;;;5029940;28;20049;-72
2023/06/25 12:00:21;;;;;;;3.63;1.70;;;32.50;68.20;;;;;;5029605;28;20037;-75
2023/06/25 12:02:46;;;;;;;5.38;2.28;;;32.50;70.20;;;;;;5011490;28;20034;-73
2023/06/25 12:05:13;;;;;;;2.95;2.15;;;32.40;70.00;;;;;;5029584;28;20041;-73
2023/06/25 12:07:38;;;;;;;4.00;2.22;;;32.40;69.20;;;;;;5012820;28;20179;-74
2023/06/25 12:10:04;;;;;;;3.95;2.17;;;32.40;70.50;;;;;;5030337;28;20128;-73
2023/06/25 12:12:30;;;;;;;4.47;2.28;;;32.30;69.50;;;;;;5030882;28;20038;-73
2023/06/25 12:14:56;;;;;;;3.42;2.38;;;32.30;69.30;;;;;;5031390;28;20056;-73
2023/06/25 12:17:21;;;;;;;4.07;1.80;;;32.30;69.20;;;;;;5012227;28;20490;-74
2023/06/25 12:19:47;;;;;;;3.47;2.15;;;32.30;70.00;;;;;;5031335;28;20146;-73
2023/06/25 12:22:13;;;;;;;2.97;1.65;;;32.30;69.20;;;;;;5012082;28;20573;-72
2023/06/25 12:24:38;;;;;;;2.22;1.58;;;32.40;68.20;;;;;;5011937;28;20194;-74
2023/06/25 12:27:04;;;;;;;2.90;1.92;;;32.30;68.20;;;;;;5029725;28;20029;-75
2023/06/25 12:29:31;;;;;;;4.05;1.85;;;32.20;69.70;;;;;;5010707;28;20033;-72
2023/06/25 12:31:57;;;;;;;2.85;1.98;;;32.30;71.30;;;;;;5029261;28;20045;-72
2023/06/25 12:34:22;;;;;;;4.25;1.92;;;32.30;70.80;;;;;;5029918;28;20037;-71
2023/06/25 12:36:48;;;;;;;3.55;1.98;;;32.30;69.90;;;;;;5042227;28;20117;-73
2023/06/25 12:39:13;;;;;;;4.88;2.20;;;32.30;68.50;;;;;;5020138;28;20133;-72
2023/06/25 12:41:39;;;;;;;4.00;1.80;;;32.10;69.00;;;;;;5028802;28;20033;-72